createdAt,value
2018-03-02T00:02:14.681Z,21.70
2018-03-02T00:04:41.293Z,21.57
2018-03-02T00:07:07.897Z,21.83
2018-03-02T00:09:34.546Z,20.73
2018-03-02T00:12:01.156Z,23.50
2018-03-02T00:14:27.779Z,23.07
2018-03-02T00:16:54.377Z,20.37
2018-03-02T00:19:20.989Z,20.33
2018-03-02T00:21:47.603Z,22.67
2018-03-02T00:24:14.212Z,22.80
2018-03-02T00:26:40.837Z,22.03
2018-03-02T00:29:07.441Z,23.30
2018-03-02T00:31:34.070Z,20.03
2018-03-02T00:34:00.676Z,20.77
2018-03-02T00:36:27.289Z,22.97
2018-03-02T00:38:53.885Z,22.17
2018-03-02T00:41:20.515Z,18.77
2018-03-02T00:43:47.163Z,23.93
2018-03-02T00:48:47.313Z,20.50
2018-03-02T00:51:13.940Z,23.20
2018-03-02T00:53:40.627Z,24.47
2018-03-02T00:56:07.244Z,23.23
2018-03-02T00:58:33.857Z,22.43
2018-03-02T01:01:00.474Z,22.60
2018-03-02T01:03:27.107Z,24.13
2018-03-02T01:05:53.716Z,21.53
2018-03-02T01:08:20.332Z,22.73
2018-03-02T01:10:46.934Z,21.17
2018-03-02T01:13:13.586Z,23.30
2018-03-02T01:15:40.194Z,24.00
2018-03-02T01:18:06.780Z,23.30
2018-03-02T01:20:33.417Z,23.23
2018-03-02T01:23:00.050Z,23.37
2018-03-02T01:25:26.904Z,24.37
2018-03-02T01:27:53.991Z,22.33
2018-03-02T01:30:20.581Z,20.73
2018-03-02T01:32:52.056Z,22.27
2018-03-02T01:35:18.672Z,22.10
2018-03-02T01:37:46.107Z,22.77
2018-03-02T01:40:12.717Z,19.90
2018-03-02T01:42:39.412Z,23.00
2018-03-02T01:45:06.243Z,20.83
2018-03-02T01:47:32.921Z,23.90
2018-03-02T01:49:59.544Z,19.93
2018-03-02T01:52:26.267Z,23.10
2018-03-02T01:54:52.949Z,20.80
2018-03-02T01:57:19.552Z,24.07
2018-03-02T01:59:46.169Z,22.53
2018-03-02T02:02:12.776Z,23.10
2018-03-02T02:04:39.385Z,25.13
2018-03-02T02:07:05.991Z,19.87
2018-03-02T02:09:32.617Z,21.63
2018-03-02T02:11:59.233Z,21.83
2018-03-02T02:14:25.859Z,20.97
2018-03-02T02:16:52.524Z,21.10
2018-03-02T02:19:19.122Z,24.17
2018-03-02T02:21:46.076Z,23.03
2018-03-02T02:24:12.669Z,24.37
2018-03-02T02:26:39.275Z,23.10
2018-03-02T02:29:05.869Z,22.60
2018-03-02T02:31:32.486Z,24.90
2018-03-02T02:33:59.077Z,21.30
2018-03-02T02:36:25.929Z,22.03
2018-03-02T02:38:52.505Z,21.60
2018-03-02T02:41:19.117Z,23.67
2018-03-02T02:43:45.762Z,24.03
2018-03-02T02:46:12.449Z,22.60
2018-03-02T02:48:39.108Z,24.73
2018-03-02T02:51:05.707Z,18.10
2018-03-02T02:53:32.354Z,21.40
2018-03-02T02:55:58.945Z,24.00
2018-03-02T02:58:25.803Z,21.30
2018-03-02T03:00:52.392Z,24.77
2018-03-02T03:03:19.022Z,23.80
2018-03-02T03:05:45.643Z,19.60
2018-03-02T03:08:12.280Z,21.73
2018-03-02T03:10:38.880Z,24.10
2018-03-02T03:13:05.531Z,21.47
2018-03-02T03:15:32.135Z,23.70
2018-03-02T03:17:58.730Z,20.17
2018-03-02T03:20:25.364Z,23.37
2018-03-02T03:22:51.979Z,24.77
2018-03-02T03:25:18.660Z,22.00
2018-03-02T03:27:45.347Z,21.00
2018-03-02T03:30:11.940Z,23.33
2018-03-02T03:32:38.568Z,24.07
2018-03-02T03:35:05.253Z,23.03
2018-03-02T03:37:31.859Z,21.50
2018-03-02T03:39:58.486Z,23.00
2018-03-02T03:42:25.075Z,26.57
2018-03-02T03:44:51.686Z,23.43
2018-03-02T03:47:18.285Z,23.00
2018-03-02T03:49:44.954Z,24.30
2018-03-02T03:52:11.584Z,23.40
2018-03-02T03:54:38.195Z,18.70
2018-03-02T03:57:04.812Z,24.73
2018-03-02T03:59:31.562Z,25.70
2018-03-02T04:01:58.167Z,25.30
2018-03-02T04:04:24.802Z,22.90
2018-03-02T04:06:51.410Z,23.00
2018-03-02T04:09:18.224Z,23.33
2018-03-02T04:11:44.926Z,21.20
2018-03-02T04:14:13.158Z,21.07
2018-03-02T04:16:39.869Z,24.33
2018-03-02T04:19:06.459Z,25.93
2018-03-02T04:21:33.078Z,24.00
2018-03-02T04:23:59.673Z,23.73
2018-03-02T04:26:26.298Z,24.57
2018-03-02T04:28:52.900Z,25.43
2018-03-02T04:31:19.512Z,23.90
2018-03-02T04:33:46.112Z,21.93
2018-03-02T04:36:12.711Z,24.53
2018-03-02T04:38:39.317Z,24.87
2018-03-02T04:41:05.934Z,24.20
2018-03-02T04:43:32.558Z,24.07
2018-03-02T04:45:59.155Z,23.63
2018-03-02T04:48:25.796Z,23.70
2018-03-02T04:50:52.425Z,25.43
2018-03-02T04:53:19.050Z,23.70
2018-03-02T04:55:45.659Z,24.17
2018-03-02T04:58:12.300Z,26.40
2018-03-02T05:00:39.020Z,25.17
2018-03-02T05:03:05.637Z,24.10
2018-03-02T05:05:32.244Z,23.57
2018-03-02T05:07:58.855Z,19.20
2018-03-02T05:10:25.467Z,23.10
2018-03-02T05:12:53.028Z,23.53
2018-03-02T05:15:19.726Z,26.07
2018-03-02T05:17:47.060Z,23.83
2018-03-02T05:20:13.680Z,22.27
2018-03-02T05:22:40.297Z,25.83
2018-03-02T05:25:06.917Z,22.27
2018-03-02T05:27:33.528Z,24.90
2018-03-02T05:30:00.626Z,23.77
2018-03-02T05:32:27.269Z,25.50
2018-03-02T05:34:53.894Z,25.03
2018-03-02T05:37:20.508Z,23.07
2018-03-02T05:39:47.141Z,22.27
2018-03-02T05:42:13.792Z,25.07
2018-03-02T05:44:40.424Z,26.80
2018-03-02T05:47:07.016Z,23.97
2018-03-02T05:49:33.693Z,22.60
2018-03-02T05:52:00.311Z,23.10
2018-03-02T05:54:26.920Z,25.03
2018-03-02T05:56:53.576Z,20.57
2018-03-02T05:59:20.194Z,21.90
2018-03-02T06:01:46.845Z,26.30
2018-03-02T06:04:13.576Z,26.77
2018-03-02T06:06:40.329Z,21.80
2018-03-02T06:09:06.917Z,23.63
2018-03-02T06:11:33.770Z,25.10
2018-03-02T06:14:00.396Z,24.33
2018-03-02T06:16:27.041Z,24.67
2018-03-02T06:18:53.665Z,22.57
2018-03-02T06:21:20.277Z,22.47
2018-03-02T06:23:47.192Z,24.07
2018-03-02T06:26:13.805Z,23.50
2018-03-02T06:28:40.432Z,25.97
2018-03-02T06:31:07.050Z,24.80
2018-03-02T06:33:33.653Z,27.50
2018-03-02T06:36:00.273Z,23.50
2018-03-02T06:38:26.959Z,23.60
2018-03-02T06:40:53.573Z,26.17
2018-03-02T06:43:20.288Z,18.27
2018-03-02T06:45:46.884Z,19.50
2018-03-02T06:48:13.525Z,24.27
2018-03-02T06:50:40.195Z,24.60
2018-03-02T06:53:06.840Z,24.80
2018-03-02T06:55:33.436Z,25.70
2018-03-02T06:58:00.061Z,24.47
2018-03-02T07:00:26.683Z,18.33
2018-03-02T07:02:53.365Z,28.80
2018-03-02T07:05:20.179Z,22.40
2018-03-02T07:07:46.768Z,26.30
2018-03-02T07:10:13.399Z,25.50
2018-03-02T07:12:40.040Z,25.30
2018-03-02T07:15:06.789Z,22.53
2018-03-02T07:17:33.429Z,23.73
2018-03-02T07:20:00.216Z,25.53
2018-03-02T07:22:26.877Z,24.57
2018-03-02T07:24:53.486Z,24.60
2018-03-02T07:27:20.103Z,25.97
2018-03-02T07:29:46.749Z,25.10
2018-03-02T07:32:13.410Z,25.77
2018-03-02T07:34:39.998Z,25.93
2018-03-02T07:37:06.609Z,24.00
2018-03-02T07:39:33.276Z,26.30
2018-03-02T07:41:59.948Z,23.20
2018-03-02T07:44:26.664Z,25.30
2018-03-02T07:46:53.282Z,28.43
2018-03-02T07:49:19.893Z,24.60
2018-03-02T07:51:46.524Z,25.70
2018-03-02T07:54:13.126Z,26.40
2018-03-02T07:56:39.787Z,24.30
2018-03-02T07:59:06.408Z,25.83
2018-03-02T08:01:33.071Z,22.13
2018-03-02T08:03:59.685Z,23.63
2018-03-02T08:06:26.469Z,26.73
2018-03-02T08:08:53.171Z,22.90
2018-03-02T08:11:19.804Z,26.53
2018-03-02T08:13:46.440Z,26.40
2018-03-02T08:16:13.179Z,26.77
2018-03-02T08:18:39.750Z,25.97
2018-03-02T08:21:06.386Z,28.30
2018-03-02T08:23:33.008Z,27.90
2018-03-02T08:25:59.619Z,26.97
2018-03-02T08:28:26.252Z,25.57
2018-03-02T08:30:52.837Z,26.67
2018-03-02T08:33:19.431Z,31.20
2018-03-02T08:35:46.057Z,40.73
2018-03-02T08:38:12.657Z,37.37
2018-03-02T08:40:39.289Z,37.07
2018-03-02T08:43:05.925Z,42.90
2018-03-02T08:45:32.521Z,34.67
2018-03-02T08:47:59.135Z,31.73
2018-03-02T08:50:25.788Z,28.93
2018-03-02T08:52:52.485Z,29.40
2018-03-02T08:55:19.122Z,31.27
2018-03-02T08:57:45.752Z,25.30
2018-03-02T09:00:12.368Z,25.60
2018-03-02T09:02:38.965Z,29.30
2018-03-02T09:05:05.571Z,24.40
2018-03-02T09:07:32.179Z,28.83
2018-03-02T09:09:58.809Z,30.40
2018-03-02T09:12:25.404Z,25.20
2018-03-02T09:14:52.127Z,30.03
2018-03-02T09:17:18.720Z,28.07
2018-03-02T09:19:45.450Z,27.60
2018-03-02T09:22:12.014Z,25.33
2018-03-02T09:24:38.650Z,25.90
2018-03-02T09:27:05.246Z,24.90
2018-03-02T09:29:31.892Z,30.07
2018-03-02T09:31:58.544Z,28.10
2018-03-02T09:34:25.169Z,29.07
2018-03-02T09:36:51.946Z,31.93
2018-03-02T09:39:18.541Z,28.90
2018-03-02T09:41:45.164Z,31.30
2018-03-02T11:06:08.063Z,25.73
2018-03-02T11:08:34.659Z,24.43
2018-03-02T11:11:01.288Z,23.13
2018-03-02T11:13:27.893Z,27.60
2018-03-02T11:15:54.517Z,27.43
2018-03-02T11:18:21.113Z,26.90
2018-03-02T11:20:47.722Z,23.13
2018-03-02T11:23:14.342Z,26.23
2018-03-02T11:25:41.017Z,24.60
2018-03-02T11:28:07.682Z,27.20
2018-03-02T11:30:34.302Z,26.10
2018-03-02T11:33:00.912Z,26.43
2018-03-02T11:35:27.732Z,29.43
2018-03-02T11:37:54.335Z,23.97
2018-03-02T11:40:20.998Z,27.50
2018-03-02T11:42:47.628Z,27.40
2018-03-02T11:45:14.261Z,24.60
2018-03-02T11:47:42.039Z,27.43
2018-03-02T11:50:08.904Z,27.63
2018-03-02T11:52:35.826Z,26.40
2018-03-02T11:55:02.413Z,28.30
2018-03-02T11:57:29.062Z,29.53
2018-03-02T11:59:55.704Z,28.57
2018-03-02T12:02:22.554Z,27.00
2018-03-02T12:04:49.155Z,26.00
2018-03-02T12:07:15.768Z,26.90
2018-03-02T12:09:42.457Z,26.83
2018-03-02T12:12:09.171Z,31.80
2018-03-02T12:14:35.872Z,30.83
2018-03-02T12:17:02.534Z,32.10
2018-03-02T12:19:29.152Z,29.70
2018-03-02T12:21:55.761Z,31.77
2018-03-02T12:24:22.369Z,31.40
2018-03-02T12:26:48.980Z,31.43
2018-03-02T12:29:15.599Z,32.23
2018-03-02T12:31:42.204Z,31.90
2018-03-02T12:34:08.824Z,33.77
2018-03-02T12:36:35.440Z,31.50
2018-03-02T12:39:02.059Z,30.77
2018-03-02T12:41:28.690Z,29.70
2018-03-02T12:43:55.358Z,29.13
2018-03-02T12:46:22.038Z,31.73
2018-03-02T12:48:50.064Z,30.20
2018-03-02T12:51:16.711Z,31.70
2018-03-02T12:53:43.360Z,31.37
2018-03-02T12:56:10.170Z,30.83
2018-03-02T12:58:36.798Z,31.73
2018-03-02T13:01:03.449Z,33.83
2018-03-02T13:03:30.033Z,32.13
2018-03-02T13:05:56.768Z,30.97
2018-03-02T13:08:23.412Z,32.00
2018-03-02T13:10:50.029Z,33.73
2018-03-02T13:13:16.647Z,34.03
2018-03-02T13:15:43.300Z,33.60
2018-03-02T13:18:09.988Z,33.93
2018-03-02T13:20:36.631Z,33.80
2018-03-02T13:23:03.241Z,32.20
2018-03-02T13:25:29.900Z,33.40
2018-03-02T13:28:02.405Z,35.47
2018-03-02T13:30:29.004Z,34.00
2018-03-02T13:33:01.696Z,32.93
2018-03-02T13:35:28.287Z,32.70
2018-03-02T13:37:54.919Z,32.27
2018-03-02T13:40:27.527Z,34.47
2018-03-02T13:42:54.342Z,32.77
2018-03-02T13:45:20.923Z,35.43
2018-03-02T13:48:02.455Z,34.27
2018-03-02T13:50:29.080Z,34.77
2018-03-02T13:52:55.726Z,31.30
2018-03-02T13:55:22.321Z,34.60
2018-03-02T13:58:05.610Z,32.87
2018-03-02T14:00:32.199Z,34.07
2018-03-02T14:03:04.711Z,32.10
2018-03-02T14:05:31.308Z,33.93
2018-03-02T14:07:58.148Z,30.43
2018-03-02T14:10:24.787Z,33.20
2018-03-02T14:12:51.424Z,32.03
2018-03-02T14:15:18.127Z,32.60
2018-03-02T14:17:44.719Z,34.17
2018-03-02T14:20:11.362Z,35.30
2018-03-02T14:22:38.041Z,33.50
2018-03-02T14:25:04.826Z,33.93
2018-03-02T14:27:31.557Z,34.50
2018-03-02T14:29:58.221Z,35.97
2018-03-02T14:32:25.110Z,33.33
2018-03-02T14:34:51.843Z,35.50
2018-03-02T14:37:19.401Z,34.70
2018-03-02T14:39:47.432Z,33.80
2018-03-02T14:42:14.303Z,32.00
2018-03-02T14:44:42.100Z,34.67
2018-03-02T14:47:08.765Z,34.70
2018-03-02T14:49:35.420Z,34.33
2018-03-02T14:52:02.060Z,32.53
2018-03-02T14:54:28.755Z,34.10
2018-03-02T14:56:55.377Z,32.87
2018-03-02T14:59:22.001Z,32.90
2018-03-02T15:01:48.649Z,31.40
2018-03-02T15:04:15.540Z,32.37
2018-03-02T15:06:42.141Z,33.27
2018-03-02T15:09:08.784Z,33.80
2018-03-02T15:11:35.397Z,32.43
2018-03-02T15:14:02.052Z,34.70
2018-03-02T15:16:28.726Z,33.13
2018-03-02T15:18:55.330Z,34.50
2018-03-02T15:21:21.961Z,32.97
2018-03-02T15:23:48.572Z,32.13
2018-03-02T15:26:15.197Z,31.80
2018-03-02T15:28:41.804Z,32.73
2018-03-02T15:31:14.125Z,31.63
2018-03-02T15:33:40.802Z,33.60
2018-03-02T15:36:07.478Z,32.93
2018-03-02T15:38:34.331Z,31.60
2018-03-02T15:41:00.923Z,32.00
2018-03-02T15:43:28.056Z,32.23
2018-03-02T15:45:54.710Z,31.77
2018-03-02T15:48:21.326Z,29.57
2018-03-02T15:50:48.144Z,31.00
2018-03-02T15:53:14.969Z,30.80
2018-03-02T15:55:41.968Z,30.10
2018-03-02T15:58:08.718Z,29.20
2018-03-02T16:00:35.912Z,29.80
2018-03-02T16:03:02.579Z,33.77
2018-03-02T16:05:29.261Z,30.70
2018-03-02T16:07:55.984Z,33.57
2018-03-02T16:10:22.604Z,34.87
2018-03-02T16:12:49.447Z,34.73
2018-03-02T16:15:16.051Z,33.30
2018-03-02T16:17:46.044Z,35.13
2018-03-02T16:20:13.304Z,34.03
2018-03-02T16:22:39.905Z,33.87
2018-03-02T16:25:06.573Z,32.63
2018-03-02T16:27:33.248Z,33.47
2018-03-02T16:29:59.902Z,35.53
2018-03-02T16:32:26.510Z,32.50
2018-03-02T16:34:53.194Z,33.40
2018-03-02T16:37:20.062Z,31.30
2018-03-02T16:39:46.682Z,34.10
2018-03-02T16:42:13.361Z,34.17
2018-03-02T16:44:40.079Z,32.10
2018-03-02T16:47:06.670Z,33.37
2018-03-02T16:49:33.315Z,34.90
2018-03-02T16:51:59.948Z,33.20
2018-03-02T16:54:26.601Z,33.57
2018-03-02T16:56:53.220Z,35.70
2018-03-02T16:59:19.834Z,31.17
2018-03-02T17:01:46.444Z,32.20
2018-03-02T17:04:13.055Z,32.20
2018-03-02T17:06:39.782Z,32.10
2018-03-02T17:09:06.424Z,34.10
2018-03-02T17:11:33.236Z,33.10
2018-03-02T17:13:59.860Z,34.17
2018-03-02T17:16:26.465Z,33.00
2018-03-02T17:18:53.123Z,33.07
2018-03-02T17:21:19.818Z,32.97
2018-03-02T17:23:46.489Z,34.20
2018-03-02T17:26:13.101Z,33.37
2018-03-02T17:28:39.745Z,33.50
2018-03-02T17:31:06.355Z,35.43
2018-03-02T17:33:33.040Z,35.50
2018-03-02T17:35:59.645Z,36.67
2018-03-02T17:38:26.271Z,34.93
2018-03-02T17:40:52.892Z,35.03
2018-03-02T17:43:19.541Z,35.90
2018-03-02T17:45:46.183Z,37.67
2018-03-02T17:48:12.804Z,35.80
2018-03-02T17:50:39.438Z,36.30
2018-03-02T17:53:06.164Z,34.30
2018-03-02T17:55:32.792Z,34.93
2018-03-02T17:57:59.435Z,36.23
2018-03-02T18:00:26.057Z,36.50
2018-03-02T18:02:52.709Z,34.60
2018-03-02T18:05:19.365Z,37.53
2018-03-02T18:07:45.982Z,36.80
2018-03-02T18:10:12.664Z,36.13
2018-03-02T18:12:39.291Z,36.93
2018-03-02T18:15:05.924Z,35.40
2018-03-02T18:17:32.563Z,39.07
2018-03-02T18:19:59.728Z,35.50
2018-03-02T18:22:26.373Z,34.43
2018-03-02T18:24:52.983Z,36.40
2018-03-02T18:27:19.648Z,35.37
2018-03-02T18:29:46.259Z,40.17
2018-03-02T18:32:12.980Z,37.67
2018-03-02T18:34:39.593Z,36.97
2018-03-02T18:37:06.304Z,36.77
2018-03-02T18:39:32.972Z,35.47
2018-03-02T18:41:59.607Z,38.00
2018-03-02T18:44:26.317Z,36.80
2018-03-02T18:46:53.186Z,35.60
2018-03-02T18:49:19.858Z,37.13
2018-03-02T18:51:46.521Z,36.27
2018-03-02T18:54:13.147Z,36.70
2018-03-02T18:56:39.988Z,37.30
2018-03-02T18:59:06.678Z,37.43
2018-03-02T19:01:33.603Z,36.77
2018-03-02T19:04:00.433Z,37.50
2018-03-02T19:06:27.060Z,36.60
2018-03-02T19:08:53.707Z,38.07
2018-03-02T19:11:20.564Z,36.80
2018-03-02T19:13:47.187Z,39.37
2018-03-02T19:16:13.814Z,36.20
2018-03-02T19:18:40.520Z,37.47
2018-03-02T19:21:07.241Z,37.50
2018-03-02T19:23:33.937Z,40.40
2018-03-02T19:26:00.577Z,36.90
2018-03-02T19:28:27.250Z,37.77
2018-03-02T19:30:53.908Z,35.30
2018-03-02T19:33:20.541Z,36.40
2018-03-02T19:35:47.207Z,37.87
2018-03-02T19:38:13.844Z,38.70
2018-03-02T19:40:40.568Z,37.47
2018-03-02T19:43:07.179Z,37.70
2018-03-02T19:45:33.826Z,39.10
2018-03-02T19:48:00.612Z,37.70
2018-03-02T19:50:27.240Z,38.53
2018-03-02T19:52:53.844Z,39.63
2018-03-02T19:55:20.702Z,34.70
2018-03-02T19:57:47.560Z,36.87
2018-03-02T20:00:14.414Z,35.90
2018-03-02T20:02:41.689Z,34.70
2018-03-02T20:05:08.320Z,35.57
2018-03-02T20:07:35.226Z,32.50
2018-03-02T20:10:01.845Z,35.70
2018-03-02T20:12:28.592Z,34.97
2018-03-02T20:14:55.208Z,34.20
2018-03-02T20:17:22.515Z,37.03
2018-03-02T20:19:49.202Z,37.63
2018-03-02T20:22:15.836Z,37.60
2018-03-02T20:24:42.462Z,36.40
2018-03-02T20:27:09.089Z,36.57
2018-03-02T20:29:35.731Z,37.40
2018-03-02T20:32:02.326Z,37.53
2018-03-02T20:34:29.009Z,37.37
2018-03-02T20:36:55.637Z,42.50
2018-03-02T20:39:22.309Z,42.50
2018-03-02T20:41:48.996Z,40.67
2018-03-02T20:44:15.630Z,40.87
2018-03-02T20:46:42.301Z,37.00
2018-03-02T20:49:08.939Z,41.77
2018-03-02T20:51:35.609Z,42.63
2018-03-02T20:54:02.289Z,42.37
2018-03-02T20:56:29.032Z,39.57
2018-03-02T20:58:55.704Z,40.57
2018-03-02T21:01:22.392Z,43.27
2018-03-02T21:03:49.032Z,42.43
2018-03-02T21:06:15.788Z,42.77
2018-03-02T21:08:42.495Z,40.67
2018-03-02T21:11:09.545Z,43.93
2018-03-02T21:13:36.257Z,43.03
2018-03-02T21:16:02.924Z,44.57
2018-03-02T21:18:29.564Z,43.40
2018-03-02T21:20:56.265Z,43.13
2018-03-02T21:23:23.037Z,44.60
2018-03-02T21:25:49.668Z,45.33
2018-03-02T21:28:16.671Z,48.03
2018-03-02T21:30:43.631Z,45.03
2018-03-02T21:33:10.351Z,48.33
2018-03-02T21:35:37.000Z,45.60
2018-03-02T21:38:03.620Z,44.73
2018-03-02T21:40:31.083Z,47.67
2018-03-02T21:42:57.767Z,46.40
2018-03-02T21:45:24.414Z,49.27
2018-03-02T21:47:52.745Z,50.90
2018-03-02T21:50:19.442Z,47.00
2018-03-02T21:52:46.128Z,47.00
2018-03-02T21:55:12.782Z,48.70
2018-03-02T21:57:39.543Z,50.63
2018-03-02T22:00:06.226Z,51.93
2018-03-02T22:02:32.906Z,49.40
2018-03-02T22:04:59.680Z,49.13
2018-03-02T22:07:26.459Z,48.97
2018-03-02T22:09:53.128Z,48.40
2018-03-02T22:12:19.752Z,51.60
2018-03-02T22:14:46.548Z,52.17
2018-03-02T22:17:13.545Z,52.87
2018-03-02T22:19:40.128Z,51.93
2018-03-02T22:22:06.771Z,53.47
2018-03-02T22:24:33.394Z,54.93
2018-03-02T22:27:00.125Z,55.13
2018-03-02T22:29:26.779Z,52.00
2018-03-02T22:31:53.462Z,54.27
2018-03-02T22:34:20.088Z,52.33
2018-03-02T22:36:46.721Z,51.43
2018-03-02T22:39:13.532Z,49.97
2018-03-02T22:41:40.545Z,51.00
2018-03-02T22:44:07.213Z,52.07
2018-03-02T22:46:33.961Z,52.73
2018-03-02T22:49:00.802Z,52.90
2018-03-02T22:51:28.981Z,50.20
2018-03-02T22:53:55.689Z,53.80
2018-03-02T22:56:22.517Z,52.90
2018-03-02T22:58:49.176Z,52.47
2018-03-02T23:01:15.792Z,50.43
2018-03-02T23:03:42.438Z,52.27
2018-03-02T23:06:09.058Z,52.00
2018-03-02T23:08:35.753Z,51.20
2018-03-02T23:11:02.685Z,52.37
2018-03-02T23:13:29.288Z,53.30
2018-03-02T23:15:55.929Z,54.70
2018-03-02T23:18:22.575Z,53.90
2018-03-02T23:20:49.160Z,56.30
2018-03-02T23:23:16.267Z,54.40
2018-03-02T23:25:42.909Z,55.50
2018-03-02T23:28:09.551Z,55.67
2018-03-02T23:30:36.195Z,52.20
2018-03-02T23:33:02.819Z,56.33
2018-03-02T23:35:29.430Z,56.40
2018-03-02T23:37:56.058Z,53.60
2018-03-02T23:40:22.721Z,57.50
2018-03-02T23:42:49.357Z,53.87
2018-03-02T23:45:16.011Z,52.60
2018-03-02T23:47:42.636Z,54.77
2018-03-02T23:50:09.266Z,54.47
2018-03-02T23:52:35.888Z,55.90
2018-03-02T23:55:02.612Z,60.77
2018-03-02T23:57:29.241Z,55.50
2018-03-02T23:59:55.883Z,54.63
